Time;durP1;ratioP1;P1;durP2;ratioP2;P2;SDS_P1;SDS_P2;PMS_P1;PMS_P2;Temp;Humidity;BMP_temperature;BMP_pressure;BME280_temperature;BME280_humidity;BME280_pressure;Samples;Min_cycle;Max_cycle;Signal;HPM_P1;HPM_P2
2021/03/16 00:03:03;;;;;;;19.55;6.50;;;;;;;4.76;100.00;101400.38;10169413;29;20143;-70
2021/03/16 00:08:12;;;;;;;22.13;6.80;;;;;;;4.82;100.00;101401.19;10149660;29;20051;-71
2021/03/16 00:13:13;;;;;;;26.70;6.55;;;;;;;4.80;100.00;101400.31;10178097;29;20059;-71
2021/03/16 00:18:15;;;;;;;22.88;7.00;;;;;;;4.78;100.00;101398.59;10192249;29;20047;-71
2021/03/16 00:23:18;;;;;;;19.50;6.05;;;;;;;4.79;100.00;101414.25;10150986;29;20112;-70
2021/03/16 00:28:19;;;;;;;20.95;6.20;;;;;;;4.84;100.00;101420.31;10139653;29;20044;-70
2021/03/16 00:33:21;;;;;;;20.13;5.45;;;;;;;4.75;100.00;101414.28;10137708;29;20044;-71
2021/03/16 00:38:22;;;;;;;23.55;6.28;;;;;;;4.76;100.00;101416.03;10137899;29;20045;-71
2021/03/16 00:43:23;;;;;;;18.98;5.35;;;;;;;4.78;100.00;101422.94;10157115;29;20051;-71
2021/03/16 00:48:24;;;;;;;15.93;5.53;;;;;;;4.79;100.00;101421.22;10176440;29;20052;-70
2021/03/16 00:53:29;;;;;;;;;;;;;;;4.76;100.00;101429.09;10177616;29;20044;-70
2021/03/16 00:58:37;;;;;;;20.00;4.70;;;;;;;4.84;100.00;101440.34;10176127;29;19937;-71
2021/03/16 01:03:38;;;;;;;18.95;5.70;;;;;;;4.85;100.00;101429.84;10177453;29;20048;-71
2021/03/16 01:08:39;;;;;;;20.30;5.43;;;;;;;4.86;100.00;101434.19;10147875;29;20068;-71
2021/03/16 01:13:41;;;;;;;17.65;4.82;;;;;;;4.82;100.00;101423.81;10138153;29;20072;-71
2021/03/16 01:18:42;;;;;;;15.98;4.68;;;;;;;4.81;100.00;101422.94;10136230;29;20454;-71
2021/03/16 01:23:43;;;;;;;18.30;4.50;;;;;;;4.82;100.00;101422.06;10137877;29;20060;-71
2021/03/16 01:28:45;;;;;;;16.27;4.20;;;;;;;4.80;100.00;101410.75;10151847;29;20049;-71
2021/03/16 01:33:47;;;;;;;20.40;4.85;;;;;;;4.74;100.00;101402.13;10136412;29;20052;-71
2021/03/16 01:38:48;;;;;;;14.60;4.85;;;;;;;4.80;100.00;101412.50;10136409;29;20051;-70
2021/03/16 01:43:49;;;;;;;18.38;4.30;;;;;;;4.77;100.00;101399.50;10137200;29;20052;-71
2021/03/16 01:48:51;;;;;;;18.17;5.38;;;;;;;4.84;100.00;101402.03;10136412;29;20052;-70
2021/03/16 01:53:52;;;;;;;14.38;4.88;;;;;;;4.77;100.00;101399.50;10141320;29;20052;-71
2021/03/16 01:59:00;;;;;;;15.32;4.40;;;;;;;4.68;100.00;101392.59;10144437;29;20075;-70
2021/03/16 02:04:20;;;;;;;21.75;4.95;;;;;;;4.68;100.00;101402.19;10144676;29;20379;-71
2021/03/16 02:09:46;;;;;;;19.38;5.38;;;;;;;4.69;100.00;101406.50;10144088;29;20048;-70
2021/03/16 02:15:12;;;;;;;;;;;;;;;4.71;100.00;101407.34;10144057;29;20060;-71
2021/03/16 02:20:49;;;;;;;18.45;6.40;;;;;;;4.63;100.00;101412.63;10144414;29;19987;-71
2021/03/16 02:26:37;;;;;;;18.60;5.13;;;;;;;4.57;100.00;101403.13;10143260;29;20044;-71
2021/03/16 02:32:08;;;;;;;19.67;4.22;;;;;;;4.61;100.00;101423.94;10147973;29;20064;-70
2021/03/16 02:37:31;;;;;;;19.95;4.82;;;;;;;4.56;100.00;101437.03;10143387;29;20053;-71
2021/03/16 02:42:50;;;;;;;20.48;5.03;;;;;;;4.55;100.00;101436.16;10142580;29;20049;-71
2021/03/16 02:48:11;;;;;;;17.63;4.72;;;;;;;4.54;100.00;101446.59;10142446;29;20048;-71
2021/03/16 02:53:33;;;;;;;16.63;4.80;;;;;;;4.43;100.00;101441.47;10142241;29;20052;-70
2021/03/16 02:58:53;;;;;;;17.30;4.30;;;;;;;4.54;100.00;101472.69;10140828;29;20461;-70
2021/03/16 03:04:14;;;;;;;16.27;5.30;;;;;;;4.54;100.00;101465.75;10154109;29;20047;-70
2021/03/16 03:09:35;;;;;;;12.95;3.95;;;;;;;4.51;100.00;101464.91;10150966;29;20060;-71
2021/03/16 03:14:54;;;;;;;16.20;4.40;;;;;;;4.53;100.00;101477.06;10149217;29;20048;-71
2021/03/16 03:20:15;;;;;;;16.85;4.30;;;;;;;4.58;100.00;101490.09;10179532;29;20052;-71
2021/03/16 03:25:39;;;;;;;21.23;4.35;;;;;;;4.63;100.00;101506.56;10165885;29;20045;-71
2021/03/16 03:31:01;;;;;;;15.25;4.07;;;;;;;4.52;100.00;101490.97;10142145;29;20053;-70
2021/03/16 03:36:23;;;;;;;13.55;4.20;;;;;;;4.47;100.00;101500.56;10140352;29;20056;-71
2021/03/16 03:41:44;;;;;;;17.27;4.05;;;;;;;4.53;100.00;101510.09;10141026;29;20052;-70
2021/03/16 03:47:08;;;;;;;16.10;4.72;;;;;;;4.53;100.00;101518.81;10139501;29;20048;-71
2021/03/16 03:52:30;;;;;;;17.10;4.53;;;;;;;4.58;100.00;101527.50;10140645;29;20060;-71
2021/03/16 03:57:51;;;;;;;18.95;5.43;;;;;;;4.59;100.00;101517.94;10140068;29;20048;-71
2021/03/16 04:03:12;;;;;;;16.27;4.78;;;;;;;4.50;100.00;101518.84;10140095;29;20056;-70
2021/03/16 04:08:33;;;;;;;15.18;4.00;;;;;;;4.50;100.00;101520.56;10139480;29;20455;-71
2021/03/16 04:13:53;;;;;;;16.67;4.45;;;;;;;4.41;100.00;101508.44;10139987;29;20049;-71
2021/03/16 04:19:14;;;;;;;21.85;4.75;;;;;;;4.49;100.00;101530.16;10138876;29;20096;-70
2021/03/16 04:24:34;;;;;;;17.17;4.13;;;;;;;4.50;100.00;101537.09;10139694;29;20048;-71
2021/03/16 04:29:54;;;;;;;23.20;5.13;;;;;;;4.55;100.00;101557.94;10158155;29;20052;-71
2021/03/16 04:35:14;;;;;;;20.90;6.70;;;;;;;4.61;100.00;101563.13;10139858;29;20056;-71
2021/03/16 04:40:33;;;;;;;24.90;6.38;;;;;;;4.58;100.00;101561.41;10177901;29;20048;-71
2021/03/16 04:45:53;;;;;;;18.45;4.68;;;;;;;4.56;100.00;101571.00;10167977;29;20478;-70
2021/03/16 04:51:13;;;;;;;18.92;5.85;;;;;;;4.58;100.00;101581.44;10138567;29;20065;-71
2021/03/16 04:56:34;;;;;;;25.17;6.63;;;;;;;4.59;100.00;101577.94;10138338;29;20052;-71
2021/03/16 05:01:54;;;;;;;15.75;4.10;;;;;;;4.50;100.00;101563.19;10170261;29;20052;-72
2021/03/16 05:07:14;;;;;;;18.10;5.47;;;;;;;4.58;100.00;101582.28;10177267;29;20442;-71
2021/03/16 05:12:34;;;;;;;17.67;5.95;;;;;;;4.60;100.00;101582.28;10177297;29;20048;-72
2021/03/16 05:17:54;;;;;;;19.05;5.50;;;;;;;4.60;100.00;101577.06;10176595;29;20044;-71
2021/03/16 05:23:14;;;;;;;30.90;7.25;;;;;;;4.51;100.00;101569.28;10172274;29;20088;-70
2021/03/16 05:28:33;;;;;;;22.45;6.40;;;;;;;4.45;100.00;101577.97;10141358;29;20045;-71
2021/03/16 05:33:53;;;;;;;19.08;6.78;;;;;;;4.45;100.00;101595.38;10145056;29;20053;-71
2021/03/16 05:39:12;;;;;;;22.77;5.28;;;;;;;4.50;100.00;101597.13;10144675;29;20451;-71
2021/03/16 05:44:33;;;;;;;23.48;6.82;;;;;;;4.54;100.00;101616.22;10144996;29;20530;-71
2021/03/16 05:49:56;;;;;;;19.80;6.32;;;;;;;4.54;100.00;101614.47;10144892;29;20040;-71
2021/03/16 05:55:15;;;;;;;24.45;6.47;;;;;;;4.58;100.00;101625.78;10155369;29;20056;-71
2021/03/16 06:00:36;;;;;;;19.45;6.60;;;;;;;4.55;100.00;101624.03;10149153;29;20057;-71
2021/03/16 06:05:55;;;;;;;21.27;8.18;;;;;;;4.55;100.00;101625.78;10144180;29;20060;-71
2021/03/16 06:11:16;;;;;;;17.40;6.68;;;;;;;4.55;100.00;101633.63;10144448;29;20049;-70
2021/03/16 06:16:37;;;;;;;17.55;5.35;;;;;;;4.55;100.00;101637.09;10142207;29;20044;-71
2021/03/16 06:21:58;;;;;;;19.58;7.40;;;;;;;4.63;100.00;101650.13;10144133;29;20056;-71
2021/03/16 06:27:25;;;;;;;11.65;4.28;;;;;;;4.63;100.00;101649.25;10143257;29;20048;-71
2021/03/16 06:32:45;;;;;;;16.27;4.07;;;;;;;4.57;100.00;101652.75;10143716;29;20052;-71
2021/03/16 06:38:08;;;;;;;12.30;4.88;;;;;;;4.73;100.00;101674.44;10148533;29;20055;-69
2021/03/16 06:43:28;;;;;;;14.13;5.00;;;;;;;4.72;100.00;101673.56;10180409;29;20478;-69
2021/03/16 06:48:48;;;;;;;12.93;5.22;;;;;;;4.78;100.00;101680.50;10178489;29;20053;-69
2021/03/16 06:54:12;;;;;;;13.48;2.97;;;;;;;4.93;100.00;101677.88;10155804;29;20088;-69
2021/03/16 06:59:32;;;;;;;12.15;3.67;;;;;;;5.20;100.00;101688.16;10178629;29;20462;-68
2021/03/16 07:04:52;;;;;;;16.63;4.25;;;;;;;5.27;100.00;101681.19;10177451;29;20355;-70
2021/03/16 07:10:12;;;;;;;19.52;7.00;;;;;;;5.39;100.00;101677.63;10173986;29;20466;-69
2021/03/16 07:15:33;;;;;;;17.67;4.57;;;;;;;5.58;100.00;101674.03;10177140;29;20484;-70
2021/03/16 07:20:56;;;;;;;18.38;5.80;;;;;;;5.82;100.00;101693.91;10178529;29;20123;-69
2021/03/16 07:26:17;;;;;;;15.20;5.78;;;;;;;6.26;100.00;101712.78;10176707;29;20048;-69
2021/03/16 07:31:43;;;;;;;16.33;5.97;;;;;;;7.22;100.00;101746.66;10177666;29;20513;-71
2021/03/16 07:37:05;;;;;;;15.05;6.82;;;;;;;7.79;100.00;101733.63;10176941;29;20056;-69
2021/03/16 07:42:26;;;;;;;18.20;6.32;;;;;;;7.16;100.00;101655.00;10177576;29;20051;-69
2021/03/16 07:47:46;;;;;;;18.00;7.60;;;;;;;7.09;100.00;101650.75;10176028;29;20091;-68
2021/03/16 07:53:06;;;;;;;23.23;7.18;;;;;;;6.76;100.00;101622.34;10173819;29;20059;-67
2021/03/16 07:58:26;;;;;;;21.25;7.60;;;;;;;6.83;100.00;101647.59;10159134;29;20052;-69
2021/03/16 08:03:51;;;;;;;15.52;5.00;;;;;;;9.48;100.00;101818.25;10177067;29;20051;-70
2021/03/16 08:09:21;;;;;;;16.75;5.75;;;;;;;8.69;96.94;101687.53;10175236;29;20056;-68
2021/03/16 08:14:41;;;;;;;17.85;6.18;;;;;;;8.19;95.18;101643.78;10176521;29;20052;-69
2021/03/16 08:20:03;;;;;;;12.18;5.00;;;;;;;7.91;96.74;101631.13;10175026;29;20477;-66
2021/03/16 08:25:23;;;;;;;15.57;4.80;;;;;;;7.96;95.85;101650.28;10176141;29;20052;-68
2021/03/16 08:30:43;;;;;;;13.40;4.82;;;;;;;7.76;96.42;101613.03;10171949;29;20056;-66
2021/03/16 08:36:13;;;;;;;13.90;4.00;;;;;;;7.41;96.03;101590.00;10165059;29;20060;-69
2021/03/16 08:41:32;;;;;;;12.60;4.38;;;;;;;7.06;98.33;101579.16;10174335;29;20134;-68
2021/03/16 08:46:53;;;;;;;15.13;4.82;;;;;;;6.98;100.00;101583.66;10174007;29;20052;-69
2021/03/16 08:52:32;;;;;;;15.88;5.03;;;;;;;6.71;100.00;101582.25;10174603;29;20052;-68
2021/03/16 08:57:58;;;;;;;12.45;4.35;;;;;;;6.46;100.00;101582.56;10174667;29;20055;-68
2021/03/16 09:03:27;;;;;;;10.52;3.97;;;;;;;6.64;100.00;101612.03;10178017;29;20142;-69
2021/03/16 09:08:51;;;;;;;14.40;5.47;;;;;;;7.41;100.00;101673.88;10182217;29;20044;-69
2021/03/16 09:14:16;;;;;;;10.65;4.05;;;;;;;7.38;100.00;101663.44;10182968;29;20056;-69
2021/03/16 09:19:36;;;;;;;9.70;4.33;;;;;;;6.96;100.00;101627.31;10167055;29;20044;-68
2021/03/16 09:24:56;;;;;;;16.20;4.65;;;;;;;6.91;100.00;101616.06;10155965;29;20139;-69
2021/03/16 09:30:17;;;;;;;13.50;4.60;;;;;;;6.91;100.00;101614.31;10184399;29;20119;-68
2021/03/16 09:35:39;;;;;;;15.82;5.32;;;;;;;7.33;100.00;101659.16;10183868;29;20051;-68
2021/03/16 09:40:58;;;;;;;11.48;5.07;;;;;;;7.74;100.00;101696.13;10182882;29;20048;-68
2021/03/16 09:46:12;;;;;;;13.13;5.18;;;;;;;7.69;100.00;101644.63;10181675;29;20060;-68
2021/03/16 09:51:19;;;;;;;10.52;3.85;;;;;;;8.23;97.69;101672.56;10176188;29;20075;-67
2021/03/16 09:56:32;;;;;;;9.02;3.78;;;;;;;8.06;94.26;101629.13;10177183;29;20041;-69
2021/03/16 10:01:40;;;;;;;8.65;3.30;;;;;;;8.11;92.54;101615.06;10148673;29;20048;-68
2021/03/16 10:06:42;;;;;;;11.35;4.60;;;;;;;8.87;89.11;101673.19;10156822;29;20104;-67
2021/03/16 10:11:44;;;;;;;11.60;3.10;;;;;;;9.75;86.54;101718.56;10153064;29;20055;-68
2021/03/16 10:16:47;;;;;;;10.18;3.00;;;;;;;10.65;83.14;101741.81;10155779;29;20072;-69
2021/03/16 10:21:48;;;;;;;8.80;3.15;;;;;;;10.07;81.59;101633.56;10165699;29;20058;-69
2021/03/16 10:27:00;;;;;;;8.15;3.10;;;;;;;10.35;80.65;101673.25;10180760;29;20036;-69
2021/03/16 10:32:01;;;;;;;12.48;4.22;;;;;;;9.77;82.15;101608.88;10183095;29;20052;-69
2021/03/16 10:37:03;;;;;;;12.32;6.25;;;;;;;9.92;82.92;101616.38;10163100;29;20458;-68
2021/03/16 10:42:04;;;;;;;9.48;4.97;;;;;;;10.60;82.09;101643.56;10178906;29;20044;-68
2021/03/16 10:47:06;;;;;;;11.27;5.10;;;;;;;10.23;82.28;101603.31;10178130;29;20099;-66
2021/03/16 10:52:08;;;;;;;11.40;3.90;;;;;;;9.43;84.01;101554.47;10175694;29;20060;-66
2021/03/16 10:57:09;;;;;;;13.35;4.90;;;;;;;9.54;84.83;101598.91;10166067;29;20040;-66
2021/03/16 11:02:11;;;;;;;12.45;5.30;;;;;;;9.47;84.53;101571.03;10139832;29;20053;-66
2021/03/16 11:07:13;;;;;;;10.18;3.83;;;;;;;8.75;85.71;101541.16;10139854;29;20064;-69
2021/03/16 11:12:16;;;;;;;11.88;3.58;;;;;;;9.85;84.08;101601.66;10140137;29;20063;-68
2021/03/16 11:17:18;;;;;;;10.10;3.83;;;;;;;9.27;85.80;101565.38;10138198;29;20079;-69
2021/03/16 11:22:21;;;;;;;9.50;3.88;;;;;;;10.28;82.99;101619.88;10139667;29;20115;-68
2021/03/16 11:27:22;;;;;;;9.57;3.80;;;;;;;9.65;81.17;101561.81;10137687;29;20056;-69
2021/03/16 11:32:23;;;;;;;7.10;3.28;;;;;;;9.37;81.77;101546.69;10138346;29;20186;-70
2021/03/16 11:37:43;;;;;;;7.63;3.75;;;;;;;9.88;81.32;101589.28;10138505;29;20045;-69
2021/03/16 11:43:03;;;;;;;8.13;3.63;;;;;;;10.16;78.52;101589.44;10150735;29;20055;-66
2021/03/16 11:48:22;;;;;;;8.63;2.70;;;;;;;10.89;76.29;101628.69;10177150;29;20044;-68
2021/03/16 11:53:42;;;;;;;7.40;2.72;;;;;;;10.46;74.10;101553.50;10155080;29;20050;-70
2021/03/16 11:59:02;;;;;;;9.13;3.42;;;;;;;10.93;74.84;101604.84;10171451;29;20135;-69
2021/03/16 12:04:22;;;;;;;12.70;3.63;;;;;;;11.43;72.11;101593.63;10174727;29;20064;-70
2021/03/16 12:09:42;;;;;;;8.27;3.13;;;;;;;10.82;72.10;101541.00;10176188;29;20529;-70
2021/03/16 12:15:06;;;;;;;8.57;3.90;;;;;;;8.99;76.76;101449.50;10176952;29;20052;-70
2021/03/16 12:20:26;;;;;;;10.90;4.15;;;;;;;7.39;91.98;101431.00;10169387;29;20092;-69
2021/03/16 12:25:51;;;;;;;9.43;3.67;;;;;;;7.91;100.00;101559.44;10175021;29;20130;-69
2021/03/16 12:31:12;;;;;;;8.80;3.58;;;;;;;8.61;100.00;101603.63;10175897;29;20044;-70
2021/03/16 12:36:35;;;;;;;9.27;3.70;;;;;;;8.85;100.00;101606.63;10161339;29;20401;-71
2021/03/16 12:41:55;;;;;;;7.20;2.90;;;;;;;9.63;95.79;101643.41;10168728;29;20052;-71
2021/03/16 12:47:15;;;;;;;8.45;4.05;;;;;;;9.44;91.62;101618.47;10174251;29;20047;-72
2021/03/16 12:52:35;;;;;;;8.30;4.15;;;;;;;9.34;87.89;101581.00;10153522;29;20052;-72
2021/03/16 12:57:55;;;;;;;9.05;4.10;;;;;;;8.59;88.40;101525.75;10174112;29;20055;-72
2021/03/16 13:03:15;;;;;;;11.02;4.05;;;;;;;8.64;89.08;101537.00;10174560;29;20464;-73
2021/03/16 13:08:34;;;;;;;6.80;3.20;;;;;;;8.29;88.54;101506.19;10172731;29;20060;-73
2021/03/16 13:13:55;;;;;;;9.73;3.92;;;;;;;8.88;88.14;101580.28;10172269;29;20056;-73
2021/03/16 13:19:14;;;;;;;11.30;4.05;;;;;;;8.91;85.47;101554.81;10170777;29;20041;-74
2021/03/16 13:24:34;;;;;;;8.85;5.97;;;;;;;8.55;87.22;101522.31;10174928;29;20131;-73
2021/03/16 13:29:54;;;;;;;9.35;4.50;;;;;;;8.63;88.81;101546.66;10158732;29;20044;-73
2021/03/16 13:35:13;;;;;;;9.73;5.18;;;;;;;7.99;94.06;101502.44;10174259;29;20139;-73
2021/03/16 13:40:35;;;;;;;7.97;4.70;;;;;;;6.37;100.00;101433.47;10158089;29;20497;-73
2021/03/16 13:45:55;;;;;;;6.63;5.07;;;;;;;6.50;100.00;101486.53;10172610;29;20134;-73
2021/03/16 13:51:15;;;;;;;8.70;5.80;;;;;;;7.03;100.00;101553.88;10179764;29;20051;-73
2021/03/16 13:56:35;;;;;;;9.25;6.20;;;;;;;7.58;100.00;101600.22;10180753;29;20142;-73
2021/03/16 14:01:54;;;;;;;9.63;6.85;;;;;;;8.14;100.00;101622.00;10181057;29;20441;-74
2021/03/16 14:07:14;;;;;;;9.50;7.35;;;;;;;8.14;100.00;101606.25;10180801;29;20044;-73
2021/03/16 14:12:35;;;;;;;8.65;6.70;;;;;;;8.27;100.00;101621.75;10154494;29;20122;-73
2021/03/16 14:17:55;;;;;;;8.32;7.00;;;;;;;8.12;100.00;101600.19;10179536;29;20466;-70
2021/03/16 14:23:15;;;;;;;7.68;5.60;;;;;;;7.49;100.00;101564.53;10179630;29;20056;-67
2021/03/16 14:28:35;;;;;;;8.38;7.57;;;;;;;7.41;100.00;101566.41;10164207;29;20048;-70
2021/03/16 14:33:55;;;;;;;8.40;7.50;;;;;;;7.57;100.00;101593.25;10179375;29;20078;-70
2021/03/16 14:39:23;;;;;;;8.88;5.90;;;;;;;7.84;100.00;101615.53;10173668;29;20123;-68
2021/03/16 14:44:43;;;;;;;9.00;6.20;;;;;;;7.77;100.00;101592.91;10178966;29;20127;-68
2021/03/16 14:50:05;;;;;;;6.60;5.43;;;;;;;7.81;100.00;101590.22;10177928;29;20542;-69
2021/03/16 14:55:26;;;;;;;8.10;5.47;;;;;;;7.45;100.00;101538.38;10178730;29;20052;-69
2021/03/16 15:00:46;;;;;;;6.65;4.15;;;;;;;7.37;99.40;101538.50;10172797;29;20776;-68
2021/03/16 15:06:06;;;;;;;5.90;4.10;;;;;;;7.47;97.91;101550.56;10178070;29;20060;-69
2021/03/16 15:11:26;;;;;;;10.18;7.22;;;;;;;7.46;96.56;101537.47;10177055;29;20056;-69
2021/03/16 15:16:48;;;;;;;7.80;4.20;;;;;;;7.26;95.83;101523.84;10178052;29;20537;-69
2021/03/16 15:22:08;;;;;;;4.50;3.38;;;;;;;7.36;97.23;101539.41;10178071;29;20143;-68
2021/03/16 15:27:28;;;;;;;5.13;3.22;;;;;;;7.36;95.89;101539.41;10177242;29;20478;-69
2021/03/16 15:32:48;;;;;;;6.15;5.65;;;;;;;7.18;95.77;101503.88;10178260;29;20390;-69
2021/03/16 15:38:09;;;;;;;6.07;5.47;;;;;;;7.05;96.48;101499.69;10176268;29;20473;-70
2021/03/16 15:43:29;;;;;;;7.38;4.82;;;;;;;6.92;97.65;101489.44;10176687;29;20101;-70
2021/03/16 15:48:49;;;;;;;7.63;5.15;;;;;;;6.89;98.30;101503.44;10175816;29;20048;-68
2021/03/16 15:54:09;;;;;;;7.10;4.43;;;;;;;6.85;100.00;101509.63;10176694;29;20048;-68
2021/03/16 15:59:28;;;;;;;5.10;4.47;;;;;;;6.85;100.00;101507.88;10175278;29;20054;-67
2021/03/16 16:04:48;;;;;;;7.40;6.70;;;;;;;6.83;100.00;101512.25;10176018;29;20056;-68
2021/03/16 16:10:10;;;;;;;4.63;4.20;;;;;;;6.71;100.00;101499.31;10174536;29;20056;-68
2021/03/16 16:15:30;;;;;;;6.13;4.43;;;;;;;6.63;100.00;101505.56;10175461;29;20092;-67
2021/03/16 16:20:49;;;;;;;5.10;4.30;;;;;;;6.68;100.00;101515.09;10175647;29;20044;-69
2021/03/16 16:26:09;;;;;;;5.35;4.05;;;;;;;6.55;100.00;101512.66;10173437;29;20055;-68
2021/03/16 16:31:30;;;;;;;8.45;6.97;;;;;;;6.45;100.00;101509.28;10175412;29;20362;-70
2021/03/16 16:36:51;;;;;;;5.05;4.55;;;;;;;6.41;100.00;101515.44;10174753;29;20458;-69
2021/03/16 16:42:11;;;;;;;6.70;4.30;;;;;;;6.41;100.00;101529.41;10175202;29;20782;-69
2021/03/16 16:47:31;;;;;;;6.00;5.03;;;;;;;6.33;100.00;101518.16;10173211;29;20490;-68
2021/03/16 16:52:51;;;;;;;7.38;4.57;;;;;;;6.34;100.00;101535.59;10175864;29;20056;-66
2021/03/16 16:58:11;;;;;;;7.90;5.15;;;;;;;6.24;100.00;101525.25;10173861;29;20044;-69
2021/03/16 17:03:32;;;;;;;6.68;5.60;;;;;;;6.18;100.00;101523.59;10173685;29;20047;-69
2021/03/16 17:08:52;;;;;;;7.45;5.35;;;;;;;6.14;100.00;101532.34;10139159;29;20048;-69
2021/03/16 17:14:11;;;;;;;6.88;5.22;;;;;;;6.07;100.00;101535.91;10137338;29;20470;-69
2021/03/16 17:19:31;;;;;;;8.95;6.97;;;;;;;6.16;100.00;101556.75;10136363;29;20120;-69
2021/03/16 17:24:52;;;;;;;12.25;11.25;;;;;;;5.91;100.00;101536.97;10140362;29;20057;-69
2021/03/16 17:30:14;;;;;;;6.80;6.13;;;;;;;5.89;100.00;101544.81;10145140;29;20466;-69
2021/03/16 17:35:34;;;;;;;7.22;5.35;;;;;;;5.87;100.00;101557.00;10144717;29;20064;-71
2021/03/16 17:40:54;;;;;;;6.13;5.45;;;;;;;5.79;100.00;101550.97;10144626;29;20131;-71
2021/03/16 17:46:13;;;;;;;6.35;5.68;;;;;;;5.76;100.00;101566.72;10143531;29;20371;-71
2021/03/16 17:51:34;;;;;;;9.13;6.97;;;;;;;5.75;100.00;101574.56;10144451;29;20398;-67
2021/03/16 17:56:54;;;;;;;7.13;6.10;;;;;;;5.70;100.00;101585.91;10142793;29;20458;-70
2021/03/16 18:02:13;;;;;;;9.18;6.32;;;;;;;5.64;100.00;101588.59;10144694;29;20056;-69
2021/03/16 18:07:34;;;;;;;10.45;8.05;;;;;;;5.64;100.00;101583.34;10143395;29;20049;-71
2021/03/16 18:12:54;;;;;;;9.30;7.40;;;;;;;5.51;100.00;101573.91;10143762;29;20064;-71
2021/03/16 18:18:14;;;;;;;8.07;6.53;;;;;;;5.54;100.00;101599.13;10143025;29;20041;-70
2021/03/16 18:23:35;;;;;;;8.98;7.43;;;;;;;5.47;100.00;101592.22;10142875;29;20052;-70
2021/03/16 18:28:55;;;;;;;9.60;7.82;;;;;;;5.40;100.00;101594.00;10139644;29;20044;-70
2021/03/16 18:34:15;;;;;;;10.15;8.77;;;;;;;5.38;100.00;101610.56;10142561;29;20049;-70
2021/03/16 18:39:35;;;;;;;11.82;10.18;;;;;;;5.32;100.00;101612.34;10140815;29;20060;-71
2021/03/16 18:44:57;;;;;;;11.20;9.52;;;;;;;5.29;100.00;101616.72;10142141;29;20084;-67
2021/03/16 18:50:19;;;;;;;11.30;9.65;;;;;;;5.23;100.00;101617.63;10141701;29;20048;-71
2021/03/16 18:55:38;;;;;;;11.48;10.10;;;;;;;5.20;100.00;101622.00;10141389;29;20104;-70
2021/03/16 19:00:59;;;;;;;10.82;9.05;;;;;;;5.14;100.00;101622.03;10141333;29;20048;-70
2021/03/16 19:06:19;;;;;;;12.50;10.43;;;;;;;5.10;100.00;101620.34;10141830;29;20049;-69
2021/03/16 19:11:38;;;;;;;15.57;13.65;;;;;;;5.12;100.00;101632.50;10141866;29;20400;-70
2021/03/16 19:16:58;;;;;;;18.88;15.32;;;;;;;5.07;100.00;101639.50;10140012;29;20048;-71
2021/03/16 19:22:18;;;;;;;19.02;15.02;;;;;;;5.14;100.00;101645.53;10141549;29;20065;-70
2021/03/16 19:27:38;;;;;;;20.20;15.15;;;;;;;5.10;100.00;101646.47;10140077;29;20467;-71
2021/03/16 19:32:57;;;;;;;19.70;15.77;;;;;;;5.16;100.00;101647.28;10139219;29;20053;-70
2021/03/16 19:38:17;;;;;;;21.63;17.48;;;;;;;5.13;100.00;101654.25;10140567;29;20037;-69
2021/03/16 19:43:37;;;;;;;21.75;16.60;;;;;;;5.14;100.00;101654.25;10139853;29;20056;-70
2021/03/16 19:48:58;;;;;;;27.67;20.33;;;;;;;5.16;100.00;101667.31;10138681;29;20056;-70
2021/03/16 19:54:18;;;;;;;43.55;34.20;;;;;;;5.09;100.00;101663.00;10139532;29;20123;-70
2021/03/16 19:59:38;;;;;;;36.97;30.58;;;;;;;5.03;100.00;101663.88;10137939;29;20048;-70
2021/03/16 20:04:59;;;;;;;31.67;22.92;;;;;;;4.96;100.00;101659.56;10139557;29;20064;-70
2021/03/16 20:10:19;;;;;;;24.17;17.67;;;;;;;5.00;100.00;101673.47;10139052;29;20045;-70
2021/03/16 20:15:39;;;;;;;23.48;18.08;;;;;;;4.93;100.00;101676.13;10138478;29;20065;-70
2021/03/16 20:20:58;;;;;;;24.00;18.05;;;;;;;4.89;100.00;101677.00;10138886;29;20104;-70
2021/03/16 20:26:19;;;;;;;21.23;16.25;;;;;;;4.89;100.00;101678.75;10137776;29;20070;-70
2021/03/16 20:31:39;;;;;;;21.50;17.10;;;;;;;4.93;100.00;101693.53;10138465;29;20052;-69
2021/03/16 20:36:59;;;;;;;22.55;17.05;;;;;;;4.90;100.00;101693.53;10137720;29;20048;-70
2021/03/16 20:42:19;;;;;;;20.70;16.52;;;;;;;4.80;100.00;101702.25;10138434;29;20053;-69
2021/03/16 20:47:38;;;;;;;23.90;17.55;;;;;;;4.88;100.00;101711.81;10137116;29;20049;-70
2021/03/16 20:52:59;;;;;;;23.02;16.08;;;;;;;4.86;100.00;101724.00;10138421;29;20045;-70
2021/03/16 20:58:19;;;;;;;22.65;17.45;;;;;;;4.84;100.00;101719.69;10136617;29;20471;-69
2021/03/16 21:03:39;;;;;;;22.77;17.42;;;;;;;5.03;100.00;101739.59;10136919;29;20139;-70
2021/03/16 21:08:59;;;;;;;22.50;16.38;;;;;;;5.00;100.00;101744.00;10137463;29;20056;-70
2021/03/16 21:14:29;;;;;;;21.75;17.13;;;;;;;5.00;100.00;101749.22;10137559;29;20482;-70
2021/03/16 21:19:49;;;;;;;22.98;17.42;;;;;;;5.04;100.00;101753.53;10137316;29;20188;-70
2021/03/16 21:25:10;;;;;;;24.38;17.85;;;;;;;5.02;100.00;101760.53;10137730;29;20143;-70
2021/03/16 21:30:32;;;;;;;22.02;15.35;;;;;;;4.99;100.00;101763.13;10136935;29;20052;-69
2021/03/16 21:35:52;;;;;;;21.00;16.00;;;;;;;4.84;100.00;101761.44;10137033;29;20475;-70
2021/03/16 21:41:12;;;;;;;20.98;16.00;;;;;;;4.83;100.00;101775.38;10136069;29;20056;-69
2021/03/16 21:46:32;;;;;;;17.13;13.35;;;;;;;4.93;100.00;101782.31;10136192;29;20049;-70
2021/03/16 21:51:52;;;;;;;21.63;15.85;;;;;;;4.96;100.00;101790.13;10137096;29;20394;-70
2021/03/16 21:57:12;;;;;;;20.83;15.70;;;;;;;4.93;100.00;101790.16;10135197;29;20148;-70
2021/03/16 22:02:31;;;;;;;21.92;15.82;;;;;;;4.96;100.00;101796.22;10136812;29;20053;-70
2021/03/16 22:07:51;;;;;;;19.25;15.13;;;;;;;4.79;100.00;101781.44;10136729;29;20088;-70
2021/03/16 22:13:11;;;;;;;18.90;13.38;;;;;;;4.78;100.00;101783.19;10142256;29;20455;-70
2021/03/16 22:18:31;;;;;;;13.98;11.23;;;;;;;4.62;100.00;101765.81;10142253;29;20049;-70
2021/03/16 22:23:51;;;;;;;14.02;10.45;;;;;;;4.64;100.00;101777.13;10143721;29;20057;-71
2021/03/16 22:29:10;;;;;;;13.10;8.95;;;;;;;4.71;100.00;101771.03;10142332;29;20052;-69
2021/03/16 22:34:29;;;;;;;13.02;9.32;;;;;;;4.65;100.00;101763.22;10142759;29;20056;-70
2021/03/16 22:39:49;;;;;;;13.65;9.52;;;;;;;4.71;100.00;101767.53;10142413;29;20052;-70
2021/03/16 22:45:10;;;;;;;13.80;9.85;;;;;;;4.66;100.00;101761.47;10141002;29;20056;-69
2021/03/16 22:50:30;;;;;;;15.27;10.27;;;;;;;4.74;100.00;101768.41;10142050;29;20470;-69
2021/03/16 22:56:06;;;;;;;14.57;9.18;;;;;;;4.57;100.00;101750.19;10139997;29;20045;-71
2021/03/16 23:01:25;;;;;;;13.30;9.30;;;;;;;4.57;100.00;101757.13;10141990;29;20049;-68
2021/03/16 23:06:45;;;;;;;13.27;9.00;;;;;;;4.56;100.00;101758.00;10142393;29;20143;-70
2021/03/16 23:12:07;;;;;;;13.65;9.60;;;;;;;4.57;100.00;101773.66;10141038;29;20052;-69
2021/03/16 23:17:27;;;;;;;14.90;10.55;;;;;;;4.54;100.00;101778.00;10140342;29;20494;-70
2021/03/16 23:22:47;;;;;;;15.50;10.90;;;;;;;4.50;100.00;101779.75;10141467;29;20048;-70
2021/03/16 23:28:08;;;;;;;16.40;11.32;;;;;;;4.53;100.00;101791.91;10140299;29;20494;-70
2021/03/16 23:33:27;;;;;;;14.65;11.25;;;;;;;4.52;100.00;101782.34;10141289;29;20056;-71
2021/03/16 23:38:47;;;;;;;19.23;12.88;;;;;;;4.56;100.00;101789.31;10139538;29;20064;-70
2021/03/16 23:44:07;;;;;;;14.95;11.57;;;;;;;4.52;100.00;101782.34;10141085;29;20052;-70
2021/03/16 23:49:27;;;;;;;18.83;12.65;;;;;;;4.41;100.00;101778.91;10139866;29;20060;-70
2021/03/16 23:54:47;;;;;;;16.60;11.65;;;;;;;4.27;100.00;101772.81;10139428;29;20092;-70
